sensor_id;sensor_type;location;lat;lon;timestamp;temperature;humidity
14908;DHT22;7545;52.092;7.006;2023-10-31T00:01:47;13.10;99.90
14908;DHT22;7545;52.092;7.006;2023-10-31T00:04:14;13.20;99.90
14908;DHT22;7545;52.092;7.006;2023-10-31T00:06:40;13.10;99.90
14908;DHT22;7545;52.092;7.006;2023-10-31T00:09:05;13.10;99.90
14908;DHT22;7545;52.092;7.006;2023-10-31T00:11:31;13.10;99.90
14908;DHT22;7545;52.092;7.006;2023-10-31T00:13:57;13.10;99.90
14908;DHT22;7545;52.092;7.006;2023-10-31T00:16:22;13.10;99.90
14908;DHT22;7545;52.092;7.006;2023-10-31T00:18:48;13.10;99.90
14908;DHT22;7545;52.092;7.006;2023-10-31T00:21:14;13.10;99.90
14908;DHT22;7545;52.092;7.006;2023-10-31T00:23:47;13.10;99.90
14908;DHT22;7545;52.092;7.006;2023-10-31T00:26:12;13.10;99.90
14908;DHT22;7545;52.092;7.006;2023-10-31T00:28:38;13.20;99.90
14908;DHT22;7545;52.092;7.006;2023-10-31T00:31:04;13.10;99.90
14908;DHT22;7545;52.092;7.006;2023-10-31T00:33:30;13.20;99.90
14908;DHT22;7545;52.092;7.006;2023-10-31T00:35:56;13.10;99.90
14908;DHT22;7545;52.092;7.006;2023-10-31T00:38:21;13.20;99.90
14908;DHT22;7545;52.092;7.006;2023-10-31T00:40:47;13.10;99.90
14908;DHT22;7545;52.092;7.006;2023-10-31T00:43:13;13.20;99.90
14908;DHT22;7545;52.092;7.006;2023-10-31T00:45:38;13.20;99.90
14908;DHT22;7545;52.092;7.006;2023-10-31T00:48:04;13.20;99.90
14908;DHT22;7545;52.092;7.006;2023-10-31T00:50:30;13.20;99.90
14908;DHT22;7545;52.092;7.006;2023-10-31T00:52:55;13.20;99.90
14908;DHT22;7545;52.092;7.006;2023-10-31T00:55:21;13.20;99.90
14908;DHT22;7545;52.092;7.006;2023-10-31T00:57:46;13.20;99.90
14908;DHT22;7545;52.092;7.006;2023-10-31T01:00:12;13.20;99.90
14908;DHT22;7545;52.092;7.006;2023-10-31T01:02:38;13.20;99.90
14908;DHT22;7545;52.092;7.006;2023-10-31T01:05:04;13.20;99.90
14908;DHT22;7545;52.092;7.006;2023-10-31T01:07:29;13.20;99.90
14908;DHT22;7545;52.092;7.006;2023-10-31T01:09:55;13.10;99.90
14908;DHT22;7545;52.092;7.006;2023-10-31T01:12:20;13.20;99.90
14908;DHT22;7545;52.092;7.006;2023-10-31T01:14:46;13.10;99.90
14908;DHT22;7545;52.092;7.006;2023-10-31T01:17:12;13.10;99.90
14908;DHT22;7545;52.092;7.006;2023-10-31T01:19:37;13.10;99.90
14908;DHT22;7545;52.092;7.006;2023-10-31T01:22:03;13.10;99.90
14908;DHT22;7545;52.092;7.006;2023-10-31T01:24:28;13.10;99.90
14908;DHT22;7545;52.092;7.006;2023-10-31T01:26:54;13.10;99.90
14908;DHT22;7545;52.092;7.006;2023-10-31T01:29:20;13.10;99.90
14908;DHT22;7545;52.092;7.006;2023-10-31T01:31:46;13.10;99.90
14908;DHT22;7545;52.092;7.006;2023-10-31T01:34:11;13.10;99.90
14908;DHT22;7545;52.092;7.006;2023-10-31T01:36:37;12.90;99.90
14908;DHT22;7545;52.092;7.006;2023-10-31T01:39:03;12.90;99.90
14908;DHT22;7545;52.092;7.006;2023-10-31T01:41:28;12.70;99.90
14908;DHT22;7545;52.092;7.006;2023-10-31T01:43:54;12.60;99.90
14908;DHT22;7545;52.092;7.006;2023-10-31T01:46:19;12.50;99.90
14908;DHT22;7545;52.092;7.006;2023-10-31T01:48:45;12.40;99.90
14908;DHT22;7545;52.092;7.006;2023-10-31T01:51:11;12.20;99.90
14908;DHT22;7545;52.092;7.006;2023-10-31T01:53:37;12.10;99.90
14908;DHT22;7545;52.092;7.006;2023-10-31T01:56:03;12.00;99.90
14908;DHT22;7545;52.092;7.006;2023-10-31T01:58:36;11.90;99.90
14908;DHT22;7545;52.092;7.006;2023-10-31T02:01:04;11.80;99.90
14908;DHT22;7545;52.092;7.006;2023-10-31T02:03:30;11.80;99.90
14908;DHT22;7545;52.092;7.006;2023-10-31T02:05:56;11.70;99.90
14908;DHT22;7545;52.092;7.006;2023-10-31T02:08:22;11.70;99.90
14908;DHT22;7545;52.092;7.006;2023-10-31T02:10:48;11.60;99.90
14908;DHT22;7545;52.092;7.006;2023-10-31T02:13:15;11.50;99.90
14908;DHT22;7545;52.092;7.006;2023-10-31T02:15:41;11.50;99.90
14908;DHT22;7545;52.092;7.006;2023-10-31T02:18:07;11.40;99.90
14908;DHT22;7545;52.092;7.006;2023-10-31T02:20:33;11.40;99.90
14908;DHT22;7545;52.092;7.006;2023-10-31T02:22:59;11.40;99.90
14908;DHT22;7545;52.092;7.006;2023-10-31T02:25:25;11.40;99.90
14908;DHT22;7545;52.092;7.006;2023-10-31T02:27:51;11.40;99.90
14908;DHT22;7545;52.092;7.006;2023-10-31T02:30:16;11.40;99.90
14908;DHT22;7545;52.092;7.006;2023-10-31T02:32:42;11.40;99.90
14908;DHT22;7545;52.092;7.006;2023-10-31T02:35:08;11.40;99.90
14908;DHT22;7545;52.092;7.006;2023-10-31T02:37:34;11.40;99.90
14908;DHT22;7545;52.092;7.006;2023-10-31T02:39:59;11.40;99.90
14908;DHT22;7545;52.092;7.006;2023-10-31T02:42:26;11.40;99.90
14908;DHT22;7545;52.092;7.006;2023-10-31T02:44:52;11.40;99.90
14908;DHT22;7545;52.092;7.006;2023-10-31T02:47:18;11.40;99.90
14908;DHT22;7545;52.092;7.006;2023-10-31T02:49:43;11.40;99.90
14908;DHT22;7545;52.092;7.006;2023-10-31T02:52:09;11.40;99.90
14908;DHT22;7545;52.092;7.006;2023-10-31T02:54:35;11.40;99.90
14908;DHT22;7545;52.092;7.006;2023-10-31T02:57:00;11.40;99.90
14908;DHT22;7545;52.092;7.006;2023-10-31T02:59:26;11.40;99.90
14908;DHT22;7545;52.092;7.006;2023-10-31T03:01:52;11.30;99.90
14908;DHT22;7545;52.092;7.006;2023-10-31T03:04:18;11.30;99.90
14908;DHT22;7545;52.092;7.006;2023-10-31T03:06:44;11.30;99.90
14908;DHT22;7545;52.092;7.006;2023-10-31T03:09:10;11.30;99.90
14908;DHT22;7545;52.092;7.006;2023-10-31T03:11:35;11.30;99.90
14908;DHT22;7545;52.092;7.006;2023-10-31T03:14:01;11.30;99.90
14908;DHT22;7545;52.092;7.006;2023-10-31T03:16:27;11.30;99.90
14908;DHT22;7545;52.092;7.006;2023-10-31T03:18:52;11.30;99.90
14908;DHT22;7545;52.092;7.006;2023-10-31T03:21:18;11.30;99.90
14908;DHT22;7545;52.092;7.006;2023-10-31T03:23:48;11.30;99.90
14908;DHT22;7545;52.092;7.006;2023-10-31T03:26:17;11.30;99.90
14908;DHT22;7545;52.092;7.006;2023-10-31T03:28:43;11.30;99.90
14908;DHT22;7545;52.092;7.006;2023-10-31T03:31:10;11.30;99.90
14908;DHT22;7545;52.092;7.006;2023-10-31T03:33:36;11.40;99.90
14908;DHT22;7545;52.092;7.006;2023-10-31T03:36:01;11.30;99.90
14908;DHT22;7545;52.092;7.006;2023-10-31T03:38:27;11.40;99.90
14908;DHT22;7545;52.092;7.006;2023-10-31T03:40:53;11.40;99.90
14908;DHT22;7545;52.092;7.006;2023-10-31T03:43:19;11.30;99.90
14908;DHT22;7545;52.092;7.006;2023-10-31T03:45:46;11.40;99.90
14908;DHT22;7545;52.092;7.006;2023-10-31T03:48:12;11.40;99.90
14908;DHT22;7545;52.092;7.006;2023-10-31T03:50:38;11.40;99.90
14908;DHT22;7545;52.092;7.006;2023-10-31T03:53:04;11.40;99.90
14908;DHT22;7545;52.092;7.006;2023-10-31T03:55:32;11.30;99.90
14908;DHT22;7545;52.092;7.006;2023-10-31T03:58:00;11.30;99.90
14908;DHT22;7545;52.092;7.006;2023-10-31T04:00:26;11.30;99.90
14908;DHT22;7545;52.092;7.006;2023-10-31T04:02:52;11.30;99.90
14908;DHT22;7545;52.092;7.006;2023-10-31T04:05:17;11.30;99.90
14908;DHT22;7545;52.092;7.006;2023-10-31T04:07:44;11.30;99.90
14908;DHT22;7545;52.092;7.006;2023-10-31T04:10:09;11.30;99.90
14908;DHT22;7545;52.092;7.006;2023-10-31T04:12:35;11.30;99.90
14908;DHT22;7545;52.092;7.006;2023-10-31T04:15:04;11.30;99.90
14908;DHT22;7545;52.092;7.006;2023-10-31T04:17:33;11.30;99.90
14908;DHT22;7545;52.092;7.006;2023-10-31T04:19:58;11.30;99.90
14908;DHT22;7545;52.092;7.006;2023-10-31T04:22:24;11.30;99.90
14908;DHT22;7545;52.092;7.006;2023-10-31T04:24:50;11.40;99.90
14908;DHT22;7545;52.092;7.006;2023-10-31T04:27:15;11.40;99.90
14908;DHT22;7545;52.092;7.006;2023-10-31T04:29:41;11.40;99.90
14908;DHT22;7545;52.092;7.006;2023-10-31T04:32:06;11.40;99.90
14908;DHT22;7545;52.092;7.006;2023-10-31T04:34:32;11.40;99.90
14908;DHT22;7545;52.092;7.006;2023-10-31T04:36:57;11.40;99.90
14908;DHT22;7545;52.092;7.006;2023-10-31T04:39:23;11.30;99.90
14908;DHT22;7545;52.092;7.006;2023-10-31T04:41:49;11.40;99.90
14908;DHT22;7545;52.092;7.006;2023-10-31T04:44:14;11.30;99.90
14908;DHT22;7545;52.092;7.006;2023-10-31T04:46:40;11.30;99.90
14908;DHT22;7545;52.092;7.006;2023-10-31T04:49:05;11.30;99.90
14908;DHT22;7545;52.092;7.006;2023-10-31T04:51:37;11.30;99.90
14908;DHT22;7545;52.092;7.006;2023-10-31T04:54:03;11.30;99.90
14908;DHT22;7545;52.092;7.006;2023-10-31T04:56:29;11.30;99.90
14908;DHT22;7545;52.092;7.006;2023-10-31T04:58:55;11.30;99.90
14908;DHT22;7545;52.092;7.006;2023-10-31T05:01:21;11.30;99.90
14908;DHT22;7545;52.092;7.006;2023-10-31T05:03:46;11.30;99.90
14908;DHT22;7545;52.092;7.006;2023-10-31T05:06:12;11.30;99.90
14908;DHT22;7545;52.092;7.006;2023-10-31T05:08:37;11.30;99.90
14908;DHT22;7545;52.092;7.006;2023-10-31T05:11:03;11.30;99.90
14908;DHT22;7545;52.092;7.006;2023-10-31T05:13:29;11.30;99.90
14908;DHT22;7545;52.092;7.006;2023-10-31T05:15:54;11.30;99.90
14908;DHT22;7545;52.092;7.006;2023-10-31T05:18:20;11.30;99.90
14908;DHT22;7545;52.092;7.006;2023-10-31T05:20:46;11.30;99.90
14908;DHT22;7545;52.092;7.006;2023-10-31T05:23:12;11.30;99.90
14908;DHT22;7545;52.092;7.006;2023-10-31T05:25:38;11.30;99.90
14908;DHT22;7545;52.092;7.006;2023-10-31T05:28:04;11.20;99.90
14908;DHT22;7545;52.092;7.006;2023-10-31T05:30:30;11.20;99.90
14908;DHT22;7545;52.092;7.006;2023-10-31T05:32:55;11.10;99.90
14908;DHT22;7545;52.092;7.006;2023-10-31T05:35:21;11.10;99.90
14908;DHT22;7545;52.092;7.006;2023-10-31T05:37:47;11.10;99.90
14908;DHT22;7545;52.092;7.006;2023-10-31T05:40:13;11.10;99.90
14908;DHT22;7545;52.092;7.006;2023-10-31T05:42:39;11.10;99.90
14908;DHT22;7545;52.092;7.006;2023-10-31T05:45:05;11.00;99.90
14908;DHT22;7545;52.092;7.006;2023-10-31T05:47:31;11.10;99.90
14908;DHT22;7545;52.092;7.006;2023-10-31T05:49:58;11.10;99.90
14908;DHT22;7545;52.092;7.006;2023-10-31T05:52:27;11.10;99.90
14908;DHT22;7545;52.092;7.006;2023-10-31T05:54:52;11.10;99.90
14908;DHT22;7545;52.092;7.006;2023-10-31T05:57:18;11.10;99.90
14908;DHT22;7545;52.092;7.006;2023-10-31T05:59:44;11.10;99.90
14908;DHT22;7545;52.092;7.006;2023-10-31T06:02:09;11.10;99.90
14908;DHT22;7545;52.092;7.006;2023-10-31T06:04:35;11.10;99.90
14908;DHT22;7545;52.092;7.006;2023-10-31T06:07:01;11.10;99.90
14908;DHT22;7545;52.092;7.006;2023-10-31T06:09:28;11.10;99.90
14908;DHT22;7545;52.092;7.006;2023-10-31T06:11:53;11.00;99.90
14908;DHT22;7545;52.092;7.006;2023-10-31T06:14:19;11.00;99.90
14908;DHT22;7545;52.092;7.006;2023-10-31T06:16:45;11.00;99.90
14908;DHT22;7545;52.092;7.006;2023-10-31T06:19:11;11.10;99.90
14908;DHT22;7545;52.092;7.006;2023-10-31T06:21:37;11.00;99.90
14908;DHT22;7545;52.092;7.006;2023-10-31T06:24:03;11.10;99.90
14908;DHT22;7545;52.092;7.006;2023-10-31T06:26:29;11.00;99.90
14908;DHT22;7545;52.092;7.006;2023-10-31T06:28:55;11.00;99.90
14908;DHT22;7545;52.092;7.006;2023-10-31T06:31:20;11.10;99.90
14908;DHT22;7545;52.092;7.006;2023-10-31T06:33:46;11.00;99.90
14908;DHT22;7545;52.092;7.006;2023-10-31T06:36:12;11.00;99.90
14908;DHT22;7545;52.092;7.006;2023-10-31T06:38:37;11.00;99.90
14908;DHT22;7545;52.092;7.006;2023-10-31T06:41:03;11.10;99.90
14908;DHT22;7545;52.092;7.006;2023-10-31T06:43:28;11.00;99.90
14908;DHT22;7545;52.092;7.006;2023-10-31T06:45:55;11.00;99.90
14908;DHT22;7545;52.092;7.006;2023-10-31T06:48:20;11.00;99.90
14908;DHT22;7545;52.092;7.006;2023-10-31T06:50:46;11.10;99.90
14908;DHT22;7545;52.092;7.006;2023-10-31T06:53:11;11.10;99.90
14908;DHT22;7545;52.092;7.006;2023-10-31T06:55:37;11.00;99.90
14908;DHT22;7545;52.092;7.006;2023-10-31T06:58:02;11.10;99.90
14908;DHT22;7545;52.092;7.006;2023-10-31T07:00:28;11.10;99.90
14908;DHT22;7545;52.092;7.006;2023-10-31T07:02:54;11.10;99.90
14908;DHT22;7545;52.092;7.006;2023-10-31T07:05:20;11.10;99.90
14908;DHT22;7545;52.092;7.006;2023-10-31T07:07:46;11.10;99.90
14908;DHT22;7545;52.092;7.006;2023-10-31T07:10:12;11.10;99.90
14908;DHT22;7545;52.092;7.006;2023-10-31T07:12:37;11.10;99.90
14908;DHT22;7545;52.092;7.006;2023-10-31T07:15:03;11.10;99.90
14908;DHT22;7545;52.092;7.006;2023-10-31T07:17:30;11.10;99.90
14908;DHT22;7545;52.092;7.006;2023-10-31T07:19:56;11.10;99.90
14908;DHT22;7545;52.092;7.006;2023-10-31T07:22:21;11.10;99.90
14908;DHT22;7545;52.092;7.006;2023-10-31T07:24:50;11.20;99.90
14908;DHT22;7545;52.092;7.006;2023-10-31T07:27:15;11.20;99.90
14908;DHT22;7545;52.092;7.006;2023-10-31T07:29:41;11.20;99.90
14908;DHT22;7545;52.092;7.006;2023-10-31T07:32:08;11.20;99.90
14908;DHT22;7545;52.092;7.006;2023-10-31T07:34:33;11.20;99.90
14908;DHT22;7545;52.092;7.006;2023-10-31T07:36:59;11.20;99.90
14908;DHT22;7545;52.092;7.006;2023-10-31T07:39:25;11.20;99.90
14908;DHT22;7545;52.092;7.006;2023-10-31T07:41:51;11.10;99.90
14908;DHT22;7545;52.092;7.006;2023-10-31T07:44:16;11.20;99.90
14908;DHT22;7545;52.092;7.006;2023-10-31T07:46:42;11.20;99.90
14908;DHT22;7545;52.092;7.006;2023-10-31T07:49:08;11.20;99.90
14908;DHT22;7545;52.092;7.006;2023-10-31T07:51:33;11.20;99.90
14908;DHT22;7545;52.092;7.006;2023-10-31T07:53:59;11.20;99.90
14908;DHT22;7545;52.092;7.006;2023-10-31T07:56:24;11.10;99.90
14908;DHT22;7545;52.092;7.006;2023-10-31T07:58:51;11.20;99.90
14908;DHT22;7545;52.092;7.006;2023-10-31T08:01:20;11.20;99.90
14908;DHT22;7545;52.092;7.006;2023-10-31T08:03:48;11.20;99.90
14908;DHT22;7545;52.092;7.006;2023-10-31T08:06:14;11.30;99.90
14908;DHT22;7545;52.092;7.006;2023-10-31T08:08:40;11.30;99.90
14908;DHT22;7545;52.092;7.006;2023-10-31T08:11:09;11.30;99.90
14908;DHT22;7545;52.092;7.006;2023-10-31T08:13:36;11.40;99.90
14908;DHT22;7545;52.092;7.006;2023-10-31T08:16:03;11.30;99.90
14908;DHT22;7545;52.092;7.006;2023-10-31T08:18:29;11.40;99.90
14908;DHT22;7545;52.092;7.006;2023-10-31T08:20:54;11.40;99.90
14908;DHT22;7545;52.092;7.006;2023-10-31T08:23:20;11.50;99.90
14908;DHT22;7545;52.092;7.006;2023-10-31T08:25:45;11.50;99.90
14908;DHT22;7545;52.092;7.006;2023-10-31T08:28:12;11.50;99.90
14908;DHT22;7545;52.092;7.006;2023-10-31T08:30:37;11.50;99.90
14908;DHT22;7545;52.092;7.006;2023-10-31T08:33:04;11.60;99.90
14908;DHT22;7545;52.092;7.006;2023-10-31T08:35:30;11.60;99.90
14908;DHT22;7545;52.092;7.006;2023-10-31T08:37:55;11.60;99.90
14908;DHT22;7545;52.092;7.006;2023-10-31T08:40:21;11.60;99.90
14908;DHT22;7545;52.092;7.006;2023-10-31T08:42:46;11.60;99.90
14908;DHT22;7545;52.092;7.006;2023-10-31T08:45:12;11.60;99.90
14908;DHT22;7545;52.092;7.006;2023-10-31T08:47:37;11.70;99.90
14908;DHT22;7545;52.092;7.006;2023-10-31T08:50:03;11.70;99.90
14908;DHT22;7545;52.092;7.006;2023-10-31T08:52:29;11.70;99.90
14908;DHT22;7545;52.092;7.006;2023-10-31T08:54:55;11.70;99.90
14908;DHT22;7545;52.092;7.006;2023-10-31T08:57:21;11.70;99.90
14908;DHT22;7545;52.092;7.006;2023-10-31T08:59:47;11.70;99.90
14908;DHT22;7545;52.092;7.006;2023-10-31T09:02:12;11.70;99.90
14908;DHT22;7545;52.092;7.006;2023-10-31T09:04:38;11.70;99.90
14908;DHT22;7545;52.092;7.006;2023-10-31T09:07:04;11.80;99.90
14908;DHT22;7545;52.092;7.006;2023-10-31T09:09:29;11.80;99.90
14908;DHT22;7545;52.092;7.006;2023-10-31T09:11:55;11.80;99.90
14908;DHT22;7545;52.092;7.006;2023-10-31T09:14:20;11.90;99.90
14908;DHT22;7545;52.092;7.006;2023-10-31T09:16:46;11.90;99.90
14908;DHT22;7545;52.092;7.006;2023-10-31T09:19:12;11.90;99.90
14908;DHT22;7545;52.092;7.006;2023-10-31T09:21:38;12.00;99.90
14908;DHT22;7545;52.092;7.006;2023-10-31T09:24:03;12.00;99.90
14908;DHT22;7545;52.092;7.006;2023-10-31T09:26:29;12.00;99.90
14908;DHT22;7545;52.092;7.006;2023-10-31T09:28:55;12.00;99.90
14908;DHT22;7545;52.092;7.006;2023-10-31T09:31:21;12.00;99.90
14908;DHT22;7545;52.092;7.006;2023-10-31T09:33:46;12.00;99.90
14908;DHT22;7545;52.092;7.006;2023-10-31T09:36:12;12.00;99.90
14908;DHT22;7545;52.092;7.006;2023-10-31T09:38:41;12.00;99.90
14908;DHT22;7545;52.092;7.006;2023-10-31T09:41:06;12.00;99.90
14908;DHT22;7545;52.092;7.006;2023-10-31T09:43:32;12.00;99.90
14908;DHT22;7545;52.092;7.006;2023-10-31T09:45:58;12.00;99.90
14908;DHT22;7545;52.092;7.006;2023-10-31T09:48:26;12.00;99.90
14908;DHT22;7545;52.092;7.006;2023-10-31T09:50:52;12.00;99.90
14908;DHT22;7545;52.092;7.006;2023-10-31T09:53:19;12.00;99.90
14908;DHT22;7545;52.092;7.006;2023-10-31T09:55:46;12.00;99.90
14908;DHT22;7545;52.092;7.006;2023-10-31T09:58:12;12.00;99.90
14908;DHT22;7545;52.092;7.006;2023-10-31T10:00:37;12.00;99.90
14908;DHT22;7545;52.092;7.006;2023-10-31T10:03:07;12.00;99.90
14908;DHT22;7545;52.092;7.006;2023-10-31T10:05:36;12.00;99.90
14908;DHT22;7545;52.092;7.006;2023-10-31T10:08:03;12.00;99.90
14908;DHT22;7545;52.092;7.006;2023-10-31T10:10:28;12.00;99.90
14908;DHT22;7545;52.092;7.006;2023-10-31T10:12:55;12.10;99.90
14908;DHT22;7545;52.092;7.006;2023-10-31T10:15:21;12.10;99.90
14908;DHT22;7545;52.092;7.006;2023-10-31T10:17:50;12.10;99.90
14908;DHT22;7545;52.092;7.006;2023-10-31T10:20:16;12.10;99.90
14908;DHT22;7545;52.092;7.006;2023-10-31T10:22:43;12.10;99.90
14908;DHT22;7545;52.092;7.006;2023-10-31T10:25:11;12.20;99.90
14908;DHT22;7545;52.092;7.006;2023-10-31T10:27:44;12.20;99.90
14908;DHT22;7545;52.092;7.006;2023-10-31T10:30:10;12.30;99.90
14908;DHT22;7545;52.092;7.006;2023-10-31T10:32:36;12.30;99.90
14908;DHT22;7545;52.092;7.006;2023-10-31T10:35:02;12.30;99.90
14908;DHT22;7545;52.092;7.006;2023-10-31T10:37:31;12.30;99.90
14908;DHT22;7545;52.092;7.006;2023-10-31T10:39:57;12.40;99.90
14908;DHT22;7545;52.092;7.006;2023-10-31T10:42:46;12.40;99.90
14908;DHT22;7545;52.092;7.006;2023-10-31T10:45:13;12.40;99.90
14908;DHT22;7545;52.092;7.006;2023-10-31T10:47:40;12.40;99.90
14908;DHT22;7545;52.092;7.006;2023-10-31T10:50:06;12.40;99.90
14908;DHT22;7545;52.092;7.006;2023-10-31T10:52:43;12.50;99.90
14908;DHT22;7545;52.092;7.006;2023-10-31T10:55:21;12.50;99.90
14908;DHT22;7545;52.092;7.006;2023-10-31T10:58:05;12.50;99.90
14908;DHT22;7545;52.092;7.006;2023-10-31T11:00:33;12.50;99.90
14908;DHT22;7545;52.092;7.006;2023-10-31T11:03:00;12.60;99.90
14908;DHT22;7545;52.092;7.006;2023-10-31T11:05:26;12.50;99.90
14908;DHT22;7545;52.092;7.006;2023-10-31T11:07:53;12.50;99.90
14908;DHT22;7545;52.092;7.006;2023-10-31T11:10:21;12.50;99.90
14908;DHT22;7545;52.092;7.006;2023-10-31T11:12:47;12.50;99.90
14908;DHT22;7545;52.092;7.006;2023-10-31T11:15:15;12.60;99.90
14908;DHT22;7545;52.092;7.006;2023-10-31T11:17:43;12.60;99.90
14908;DHT22;7545;52.092;7.006;2023-10-31T11:20:11;12.60;99.90
14908;DHT22;7545;52.092;7.006;2023-10-31T11:22:40;12.70;99.90
14908;DHT22;7545;52.092;7.006;2023-10-31T11:25:18;12.70;99.90
14908;DHT22;7545;52.092;7.006;2023-10-31T11:27:52;12.70;99.90
14908;DHT22;7545;52.092;7.006;2023-10-31T11:30:35;12.70;99.90
14908;DHT22;7545;52.092;7.006;2023-10-31T11:33:02;12.80;99.90
14908;DHT22;7545;52.092;7.006;2023-10-31T11:35:33;12.90;99.90
14908;DHT22;7545;52.092;7.006;2023-10-31T11:38:08;13.00;99.90
14908;DHT22;7545;52.092;7.006;2023-10-31T11:40:34;13.10;99.90
14908;DHT22;7545;52.092;7.006;2023-10-31T11:43:05;13.30;99.90
14908;DHT22;7545;52.092;7.006;2023-10-31T11:45:42;13.40;99.90
14908;DHT22;7545;52.092;7.006;2023-10-31T11:48:10;13.50;99.90
14908;DHT22;7545;52.092;7.006;2023-10-31T11:50:37;13.50;99.90
14908;DHT22;7545;52.092;7.006;2023-10-31T11:53:07;13.60;99.90
14908;DHT22;7545;52.092;7.006;2023-10-31T11:55:40;13.70;99.90
14908;DHT22;7545;52.092;7.006;2023-10-31T11:58:24;13.70;99.90
14908;DHT22;7545;52.092;7.006;2023-10-31T12:01:03;13.80;99.90
14908;DHT22;7545;52.092;7.006;2023-10-31T12:03:40;13.80;99.90
14908;DHT22;7545;52.092;7.006;2023-10-31T12:06:06;13.80;99.90
14908;DHT22;7545;52.092;7.006;2023-10-31T12:08:33;13.80;99.90
14908;DHT22;7545;52.092;7.006;2023-10-31T12:11:09;13.80;99.90
14908;DHT22;7545;52.092;7.006;2023-10-31T12:13:36;13.80;99.90
14908;DHT22;7545;52.092;7.006;2023-10-31T12:16:02;13.80;99.90
14908;DHT22;7545;52.092;7.006;2023-10-31T12:18:28;13.80;99.90
14908;DHT22;7545;52.092;7.006;2023-10-31T12:20:54;13.70;99.90
14908;DHT22;7545;52.092;7.006;2023-10-31T12:23:20;13.60;99.90
14908;DHT22;7545;52.092;7.006;2023-10-31T12:25:47;13.60;99.90
14908;DHT22;7545;52.092;7.006;2023-10-31T12:28:23;13.60;99.90
14908;DHT22;7545;52.092;7.006;2023-10-31T12:30:50;13.50;99.90
14908;DHT22;7545;52.092;7.006;2023-10-31T12:33:17;13.50;99.90
14908;DHT22;7545;52.092;7.006;2023-10-31T12:35:43;13.40;99.90
14908;DHT22;7545;52.092;7.006;2023-10-31T12:38:13;13.40;99.90
14908;DHT22;7545;52.092;7.006;2023-10-31T12:40:43;13.30;99.90
14908;DHT22;7545;52.092;7.006;2023-10-31T12:43:09;13.20;99.90
14908;DHT22;7545;52.092;7.006;2023-10-31T12:45:35;13.20;99.90
14908;DHT22;7545;52.092;7.006;2023-10-31T12:48:10;13.20;99.90
14908;DHT22;7545;52.092;7.006;2023-10-31T12:50:38;13.20;99.90
14908;DHT22;7545;52.092;7.006;2023-10-31T12:53:06;13.10;99.90
14908;DHT22;7545;52.092;7.006;2023-10-31T12:55:38;13.10;99.90
14908;DHT22;7545;52.092;7.006;2023-10-31T12:58:05;13.10;99.90
14908;DHT22;7545;52.092;7.006;2023-10-31T13:00:35;13.10;99.90
14908;DHT22;7545;52.092;7.006;2023-10-31T13:03:02;13.10;99.90
14908;DHT22;7545;52.092;7.006;2023-10-31T13:05:28;13.00;99.90
14908;DHT22;7545;52.092;7.006;2023-10-31T13:07:56;13.00;99.90
14908;DHT22;7545;52.092;7.006;2023-10-31T13:10:26;13.00;99.90
14908;DHT22;7545;52.092;7.006;2023-10-31T13:12:52;13.10;99.90
14908;DHT22;7545;52.092;7.006;2023-10-31T13:15:20;13.10;99.90
14908;DHT22;7545;52.092;7.006;2023-10-31T13:17:46;13.00;99.90
14908;DHT22;7545;52.092;7.006;2023-10-31T13:20:13;12.90;99.90
14908;DHT22;7545;52.092;7.006;2023-10-31T13:22:40;12.80;99.90
14908;DHT22;7545;52.092;7.006;2023-10-31T13:25:11;12.70;99.90
14908;DHT22;7545;52.092;7.006;2023-10-31T13:27:38;12.60;99.90
14908;DHT22;7545;52.092;7.006;2023-10-31T13:30:06;12.50;99.90
14908;DHT22;7545;52.092;7.006;2023-10-31T13:32:33;12.50;99.90
14908;DHT22;7545;52.092;7.006;2023-10-31T13:34:59;12.40;99.90
14908;DHT22;7545;52.092;7.006;2023-10-31T13:37:25;12.40;99.90
14908;DHT22;7545;52.092;7.006;2023-10-31T13:39:51;12.40;99.90
14908;DHT22;7545;52.092;7.006;2023-10-31T13:42:16;12.30;99.90
14908;DHT22;7545;52.092;7.006;2023-10-31T13:44:42;12.30;99.90
14908;DHT22;7545;52.092;7.006;2023-10-31T13:47:08;12.30;99.90
14908;DHT22;7545;52.092;7.006;2023-10-31T13:49:34;12.30;99.90
14908;DHT22;7545;52.092;7.006;2023-10-31T13:52:01;12.30;99.90
14908;DHT22;7545;52.092;7.006;2023-10-31T13:54:27;12.20;99.90
14908;DHT22;7545;52.092;7.006;2023-10-31T13:56:52;12.20;99.90
14908;DHT22;7545;52.092;7.006;2023-10-31T13:59:18;12.10;99.90
14908;DHT22;7545;52.092;7.006;2023-10-31T14:01:44;12.00;99.90
14908;DHT22;7545;52.092;7.006;2023-10-31T14:04:11;12.00;99.90
14908;DHT22;7545;52.092;7.006;2023-10-31T14:06:40;11.90;99.90
14908;DHT22;7545;52.092;7.006;2023-10-31T14:09:07;11.90;99.90
14908;DHT22;7545;52.092;7.006;2023-10-31T14:11:33;11.80;99.90
14908;DHT22;7545;52.092;7.006;2023-10-31T14:14:02;11.90;99.90
14908;DHT22;7545;52.092;7.006;2023-10-31T14:16:46;11.80;99.90
14908;DHT22;7545;52.092;7.006;2023-10-31T14:19:12;11.80;99.90
14908;DHT22;7545;52.092;7.006;2023-10-31T14:21:39;11.80;99.90
14908;DHT22;7545;52.092;7.006;2023-10-31T14:24:05;11.80;99.90
14908;DHT22;7545;52.092;7.006;2023-10-31T14:26:31;11.80;99.90
14908;DHT22;7545;52.092;7.006;2023-10-31T14:28:58;11.70;99.90
14908;DHT22;7545;52.092;7.006;2023-10-31T14:31:24;11.70;99.90
14908;DHT22;7545;52.092;7.006;2023-10-31T14:33:50;11.70;99.90
14908;DHT22;7545;52.092;7.006;2023-10-31T14:36:15;11.70;99.90
14908;DHT22;7545;52.092;7.006;2023-10-31T14:38:41;11.70;99.90
14908;DHT22;7545;52.092;7.006;2023-10-31T14:41:08;11.60;99.90
14908;DHT22;7545;52.092;7.006;2023-10-31T14:43:34;11.60;99.90
14908;DHT22;7545;52.092;7.006;2023-10-31T14:46:00;11.60;99.90
14908;DHT22;7545;52.092;7.006;2023-10-31T14:48:26;11.50;99.90
14908;DHT22;7545;52.092;7.006;2023-10-31T14:50:52;11.50;99.90
14908;DHT22;7545;52.092;7.006;2023-10-31T14:53:18;11.50;99.90
14908;DHT22;7545;52.092;7.006;2023-10-31T14:55:45;11.60;99.90
14908;DHT22;7545;52.092;7.006;2023-10-31T14:58:11;11.50;99.90
14908;DHT22;7545;52.092;7.006;2023-10-31T15:00:36;11.50;99.90
14908;DHT22;7545;52.092;7.006;2023-10-31T15:03:03;11.50;99.90
14908;DHT22;7545;52.092;7.006;2023-10-31T15:05:29;11.50;99.90
14908;DHT22;7545;52.092;7.006;2023-10-31T15:07:56;11.50;99.90
14908;DHT22;7545;52.092;7.006;2023-10-31T15:10:23;11.50;99.90
14908;DHT22;7545;52.092;7.006;2023-10-31T15:12:52;11.50;99.90
14908;DHT22;7545;52.092;7.006;2023-10-31T15:15:18;11.50;99.90
14908;DHT22;7545;52.092;7.006;2023-10-31T15:17:44;11.40;99.90
14908;DHT22;7545;52.092;7.006;2023-10-31T15:20:10;11.40;99.90
14908;DHT22;7545;52.092;7.006;2023-10-31T15:22:38;11.40;99.90
14908;DHT22;7545;52.092;7.006;2023-10-31T15:25:04;11.40;99.90
14908;DHT22;7545;52.092;7.006;2023-10-31T15:27:29;11.40;99.90
14908;DHT22;7545;52.092;7.006;2023-10-31T15:29:55;11.40;99.90
14908;DHT22;7545;52.092;7.006;2023-10-31T15:32:21;11.40;99.90
14908;DHT22;7545;52.092;7.006;2023-10-31T15:34:46;11.40;99.90
14908;DHT22;7545;52.092;7.006;2023-10-31T15:37:12;11.40;99.90
14908;DHT22;7545;52.092;7.006;2023-10-31T15:39:38;11.40;99.90
14908;DHT22;7545;52.092;7.006;2023-10-31T15:42:05;11.40;99.90